Terminal Aerodrome Forecast
Issued by NWS

Home | Current Version | Previous Version | Graphics & Text | Print | Product List | Glossary On
Versions: 1 2 3 4 5 6 7 8 9 10 11 12 13 14 15 16 17 18 19
672
FTUS43 KGRB 212320
TAFCWA
TAF
KCWA 212320Z 2200/2224 26009G15KT P6SM FEW040 BKN250
     FM220200 29005KT P6SM SCT250
     FM220600 32004KT 4SM BR SCT150
     FM221400 VRB03KT P6SM SCT150
     FM221600 27006KT P6SM FEW040=

USA.gov is the U.S. government's official web portal to all federal, state and local government web resources and services.